Aérodrome :
LOGIN :

S'inscrire | Disclaimer

   EN    FR    IT 

 










Légende :    VFR   VFR Marginal   IFR   IFR Intensif   IFR Très Intensif
Visi : 
Plafond : 
>= 8 km
>= 3000ft
5 à 8 km
1000 à 3000 ft
1500m à 5 km
500 à 1000 ft
800 à 1500m
200 à 500 ft
< 800m
< 200 ft
Symboles :   Orages  Brouillard  Fortes neiges  Fortes précipitations  Vent > 20 kt
SIGMETs :   Divers  Orages  Givrage  Turbulence  Onde Orograph.  Cendres Volcan.







- Altitude de l'aérodrome : 49 ft
- Code IATA : GLZ


EHGR - Gilze-Rijen Airbase

DERNIER METAR :
  • 161525Z AUTO 25013KT 220V300 9999 -SHRA FEW015CB BKN028 BKN033 04/01 Q0994 BLU

METARs EXPIRÉS :
  • 161456Z AUTO 24011KT 220V290 9999 FEW023/// BKN026/// BKN032/// 05/01 Q0994 BLU
  • 161425Z AUTO 26011KT 9999 FEW021CB SCT049 BKN055 06/01 Q0994 BLU 28015KT 9999 SCT020 BKN030 TEMPO 29018G30KT 3000 SHRASN SCT009 SCT018CB
  • 161355Z AUTO 27011G22KT 240V300 9999 OVC120 06/01 Q0994 BLU 28015KT 9999 SCT020 BKN030 TEMPO 29018G30KT 3000 SHRASN SCT009 SCT018CB
  • 161325Z AUTO 27014KT 9999 FEW042 SCT072 06/01 Q0994 BLU 28015KT 9999 SCT020 BKN030 TEMPO 29018G30KT 3000 SHRASN SCT009 SCT018CB
  • 161255Z AUTO 27015G29KT 240V300 9999 FEW028/// SCT034/// 07/01 Q0994 BLU 28015KT 9999 SCT020 BKN030 TEMPO 29018G30KT 3000 SHRASN SCT009 SCT018CB

TAF TAF EHGR
Valide du 16 à 14h jusqu'au 17 à 02h UTC


161328Z 1614/1702 27015G25KT 9999 SCT020 BKN050
TEMPO 1614/1621 28017G30KT 4500 SHRA SCT010 SCT018CB BKN022
TEMPO 1618/1702 2000 SHRASN SCT008 BKN015CB
PROB30
TEMPO 1622/1702 1000 SNSH SCT003 BKN015CB
Pas de NOTAMs connus pour ce terrain.



MET'MAP, la Météo Aéronautique d'un coup d'oeil ! - Copyright ORBIFLY Décembre 2007 - Disclaimer

ORBIFLY MET'MAP TEAM :

Programmation & Développement : Alexandra Zaïnal
Conception & Développement : Baudouin d'Aumeries
Co-Programmation & Développement : Marc-Olivier Méhu
Soutien technique & logistique : Manuel Goepfert

Contact : metmap@orbifly.com




SOURCES & CREDITS :

   NOAA